sensor_id;sensor_type;location;lat;lon;timestamp;P1;durP1;ratioP1;P2;durP2;ratioP2
62554;SDS011;48610;52.144;8.624;2024-01-27T00:00:35;14.40;;;2.90;;
62554;SDS011;48610;52.144;8.624;2024-01-27T00:03:36;11.95;;;3.47;;
62554;SDS011;48610;52.144;8.624;2024-01-27T00:06:36;14.23;;;3.42;;
62554;SDS011;48610;52.144;8.624;2024-01-27T00:09:37;12.95;;;3.03;;
62554;SDS011;48610;52.144;8.624;2024-01-27T00:12:37;14.93;;;2.63;;
62554;SDS011;48610;52.144;8.624;2024-01-27T00:15:38;9.60;;;2.35;;
62554;SDS011;48610;52.144;8.624;2024-01-27T00:18:39;19.83;;;3.33;;
62554;SDS011;48610;52.144;8.624;2024-01-27T00:21:39;15.57;;;2.85;;
62554;SDS011;48610;52.144;8.624;2024-01-27T00:24:40;7.85;;;1.75;;
62554;SDS011;48610;52.144;8.624;2024-01-27T00:27:40;25.25;;;3.22;;
62554;SDS011;48610;52.144;8.624;2024-01-27T00:30:41;10.10;;;2.70;;
62554;SDS011;48610;52.144;8.624;2024-01-27T00:33:41;18.33;;;2.83;;
62554;SDS011;48610;52.144;8.624;2024-01-27T00:36:42;11.07;;;3.05;;
62554;SDS011;48610;52.144;8.624;2024-01-27T00:39:48;12.10;;;3.42;;
62554;SDS011;48610;52.144;8.624;2024-01-27T00:42:49;13.40;;;2.70;;
62554;SDS011;48610;52.144;8.624;2024-01-27T00:45:49;8.85;;;2.85;;
62554;SDS011;48610;52.144;8.624;2024-01-27T00:48:50;8.60;;;3.17;;
62554;SDS011;48610;52.144;8.624;2024-01-27T00:51:50;9.85;;;2.75;;
62554;SDS011;48610;52.144;8.624;2024-01-27T00:54:51;15.65;;;3.22;;
62554;SDS011;48610;52.144;8.624;2024-01-27T00:57:51;7.13;;;2.67;;
62554;SDS011;48610;52.144;8.624;2024-01-27T01:00:53;10.18;;;1.95;;
62554;SDS011;48610;52.144;8.624;2024-01-27T01:03:54;12.73;;;3.13;;
62554;SDS011;48610;52.144;8.624;2024-01-27T01:06:54;15.57;;;3.13;;
62554;SDS011;48610;52.144;8.624;2024-01-27T01:09:55;12.50;;;3.45;;
62554;SDS011;48610;52.144;8.624;2024-01-27T01:12:56;5.43;;;2.40;;
62554;SDS011;48610;52.144;8.624;2024-01-27T01:15:56;10.90;;;2.75;;
62554;SDS011;48610;52.144;8.624;2024-01-27T01:18:57;9.85;;;3.17;;
62554;SDS011;48610;52.144;8.624;2024-01-27T01:21:57;15.30;;;3.20;;
62554;SDS011;48610;52.144;8.624;2024-01-27T01:24:58;4.53;;;1.98;;
62554;SDS011;48610;52.144;8.624;2024-01-27T01:27:58;17.23;;;3.30;;
62554;SDS011;48610;52.144;8.624;2024-01-27T01:30:59;11.98;;;4.30;;
62554;SDS011;48610;52.144;8.624;2024-01-27T01:33:59;13.20;;;3.78;;
62554;SDS011;48610;52.144;8.624;2024-01-27T01:37:00;8.60;;;3.20;;
62554;SDS011;48610;52.144;8.624;2024-01-27T01:40:02;7.95;;;2.67;;
62554;SDS011;48610;52.144;8.624;2024-01-27T01:43:03;18.65;;;4.00;;
62554;SDS011;48610;52.144;8.624;2024-01-27T01:46:10;9.55;;;2.83;;
62554;SDS011;48610;52.144;8.624;2024-01-27T01:49:11;16.90;;;3.03;;
62554;SDS011;48610;52.144;8.624;2024-01-27T01:52:11;16.33;;;3.05;;
62554;SDS011;48610;52.144;8.624;2024-01-27T01:55:12;8.80;;;2.13;;
62554;SDS011;48610;52.144;8.624;2024-01-27T01:58:13;12.55;;;3.55;;
62554;SDS011;48610;52.144;8.624;2024-01-27T02:01:13;10.70;;;2.30;;
62554;SDS011;48610;52.144;8.624;2024-01-27T02:04:15;13.38;;;3.00;;
62554;SDS011;48610;52.144;8.624;2024-01-27T02:07:15;4.38;;;1.80;;
62554;SDS011;48610;52.144;8.624;2024-01-27T02:10:16;9.82;;;2.53;;
62554;SDS011;48610;52.144;8.624;2024-01-27T02:13:22;17.75;;;2.75;;
62554;SDS011;48610;52.144;8.624;2024-01-27T02:16:23;11.32;;;3.35;;
62554;SDS011;48610;52.144;8.624;2024-01-27T02:19:23;13.20;;;3.00;;
62554;SDS011;48610;52.144;8.624;2024-01-27T02:22:24;13.25;;;3.30;;
62554;SDS011;48610;52.144;8.624;2024-01-27T02:25:25;15.75;;;4.38;;
62554;SDS011;48610;52.144;8.624;2024-01-27T02:28:25;49.40;;;13.38;;
62554;SDS011;48610;52.144;8.624;2024-01-27T02:31:26;87.05;;;24.90;;
62554;SDS011;48610;52.144;8.624;2024-01-27T02:34:26;54.38;;;17.25;;
62554;SDS011;48610;52.144;8.624;2024-01-27T02:37:27;20.60;;;5.93;;
62554;SDS011;48610;52.144;8.624;2024-01-27T02:40:27;24.27;;;5.13;;
62554;SDS011;48610;52.144;8.624;2024-01-27T02:43:28;14.90;;;4.90;;
62554;SDS011;48610;52.144;8.624;2024-01-27T02:46:29;13.65;;;4.28;;
62554;SDS011;48610;52.144;8.624;2024-01-27T02:49:29;7.53;;;3.30;;
62554;SDS011;48610;52.144;8.624;2024-01-27T02:52:30;19.23;;;3.58;;
62554;SDS011;48610;52.144;8.624;2024-01-27T02:55:30;16.63;;;3.58;;
62554;SDS011;48610;52.144;8.624;2024-01-27T02:58:31;12.68;;;3.15;;
62554;SDS011;48610;52.144;8.624;2024-01-27T03:01:31;13.95;;;3.22;;
62554;SDS011;48610;52.144;8.624;2024-01-27T03:04:32;12.45;;;3.00;;
62554;SDS011;48610;52.144;8.624;2024-01-27T03:07:33;15.57;;;4.05;;
62554;SDS011;48610;52.144;8.624;2024-01-27T03:10:34;17.42;;;3.35;;
62554;SDS011;48610;52.144;8.624;2024-01-27T03:13:34;13.60;;;4.88;;
62554;SDS011;48610;52.144;8.624;2024-01-27T03:16:35;18.15;;;4.43;;
62554;SDS011;48610;52.144;8.624;2024-01-27T03:19:35;12.10;;;3.85;;
62554;SDS011;48610;52.144;8.624;2024-01-27T03:22:36;13.35;;;3.03;;
62554;SDS011;48610;52.144;8.624;2024-01-27T03:25:36;5.60;;;2.97;;
62554;SDS011;48610;52.144;8.624;2024-01-27T03:28:37;8.57;;;3.17;;
62554;SDS011;48610;52.144;8.624;2024-01-27T03:31:38;7.60;;;3.35;;
62554;SDS011;48610;52.144;8.624;2024-01-27T03:34:43;14.00;;;4.03;;
62554;SDS011;48610;52.144;8.624;2024-01-27T03:37:45;15.77;;;3.97;;
62554;SDS011;48610;52.144;8.624;2024-01-27T03:40:45;7.75;;;3.40;;
62554;SDS011;48610;52.144;8.624;2024-01-27T03:43:46;14.88;;;3.78;;
62554;SDS011;48610;52.144;8.624;2024-01-27T03:46:46;13.20;;;3.25;;
62554;SDS011;48610;52.144;8.624;2024-01-27T03:49:48;12.13;;;3.17;;
62554;SDS011;48610;52.144;8.624;2024-01-27T03:52:49;11.68;;;3.50;;
62554;SDS011;48610;52.144;8.624;2024-01-27T03:55:49;16.58;;;3.42;;
62554;SDS011;48610;52.144;8.624;2024-01-27T03:58:50;12.75;;;3.85;;
62554;SDS011;48610;52.144;8.624;2024-01-27T04:01:50;6.38;;;2.88;;
62554;SDS011;48610;52.144;8.624;2024-01-27T04:04:51;16.95;;;3.72;;
62554;SDS011;48610;52.144;8.624;2024-01-27T04:07:51;9.50;;;3.92;;
62554;SDS011;48610;52.144;8.624;2024-01-27T04:10:52;16.90;;;3.67;;
62554;SDS011;48610;52.144;8.624;2024-01-27T04:13:52;20.85;;;4.00;;
62554;SDS011;48610;52.144;8.624;2024-01-27T04:16:53;12.95;;;4.10;;
62554;SDS011;48610;52.144;8.624;2024-01-27T04:19:53;16.88;;;4.55;;
62554;SDS011;48610;52.144;8.624;2024-01-27T04:22:54;7.88;;;3.65;;
62554;SDS011;48610;52.144;8.624;2024-01-27T04:25:54;13.52;;;3.67;;
62554;SDS011;48610;52.144;8.624;2024-01-27T04:28:55;13.95;;;4.05;;
62554;SDS011;48610;52.144;8.624;2024-01-27T04:31:55;12.13;;;3.67;;
62554;SDS011;48610;52.144;8.624;2024-01-27T04:34:56;5.95;;;3.20;;
62554;SDS011;48610;52.144;8.624;2024-01-27T04:37:57;13.48;;;3.90;;
62554;SDS011;48610;52.144;8.624;2024-01-27T04:40:58;9.98;;;3.80;;
62554;SDS011;48610;52.144;8.624;2024-01-27T04:43:58;11.15;;;3.92;;
62554;SDS011;48610;52.144;8.624;2024-01-27T04:46:59;7.68;;;3.38;;
62554;SDS011;48610;52.144;8.624;2024-01-27T04:49:59;19.17;;;3.97;;
62554;SDS011;48610;52.144;8.624;2024-01-27T04:53:00;7.35;;;2.40;;
62554;SDS011;48610;52.144;8.624;2024-01-27T04:56:01;12.65;;;3.60;;
62554;SDS011;48610;52.144;8.624;2024-01-27T04:59:01;12.68;;;4.25;;
62554;SDS011;48610;52.144;8.624;2024-01-27T05:02:02;14.25;;;4.50;;
62554;SDS011;48610;52.144;8.624;2024-01-27T05:05:03;12.57;;;4.10;;
62554;SDS011;48610;52.144;8.624;2024-01-27T05:08:04;14.43;;;3.78;;
62554;SDS011;48610;52.144;8.624;2024-01-27T05:11:06;9.98;;;3.95;;
62554;SDS011;48610;52.144;8.624;2024-01-27T05:14:07;11.93;;;4.18;;
62554;SDS011;48610;52.144;8.624;2024-01-27T05:17:07;24.17;;;4.40;;
62554;SDS011;48610;52.144;8.624;2024-01-27T05:20:08;15.50;;;4.00;;
62554;SDS011;48610;52.144;8.624;2024-01-27T05:23:09;23.13;;;4.15;;
62554;SDS011;48610;52.144;8.624;2024-01-27T05:26:09;12.38;;;4.20;;
62554;SDS011;48610;52.144;8.624;2024-01-27T05:29:13;12.27;;;3.83;;
62554;SDS011;48610;52.144;8.624;2024-01-27T05:32:13;10.20;;;3.83;;
62554;SDS011;48610;52.144;8.624;2024-01-27T05:35:14;12.00;;;3.83;;
62554;SDS011;48610;52.144;8.624;2024-01-27T05:38:14;9.75;;;4.30;;
62554;SDS011;48610;52.144;8.624;2024-01-27T05:41:16;17.52;;;4.47;;
62554;SDS011;48610;52.144;8.624;2024-01-27T05:44:16;15.63;;;4.47;;
62554;SDS011;48610;52.144;8.624;2024-01-27T05:47:17;16.88;;;3.90;;
62554;SDS011;48610;52.144;8.624;2024-01-27T05:50:18;14.63;;;3.72;;
62554;SDS011;48610;52.144;8.624;2024-01-27T05:53:18;19.88;;;4.50;;
62554;SDS011;48610;52.144;8.624;2024-01-27T05:56:19;19.20;;;3.97;;
62554;SDS011;48610;52.144;8.624;2024-01-27T05:59:22;16.27;;;4.82;;
62554;SDS011;48610;52.144;8.624;2024-01-27T06:02:23;15.77;;;4.70;;
62554;SDS011;48610;52.144;8.624;2024-01-27T06:05:24;7.70;;;3.92;;
62554;SDS011;48610;52.144;8.624;2024-01-27T06:08:24;10.73;;;3.97;;
62554;SDS011;48610;52.144;8.624;2024-01-27T06:11:25;12.40;;;4.53;;
62554;SDS011;48610;52.144;8.624;2024-01-27T06:14:26;10.80;;;3.58;;
62554;SDS011;48610;52.144;8.624;2024-01-27T06:17:26;11.55;;;4.15;;
62554;SDS011;48610;52.144;8.624;2024-01-27T06:20:27;11.88;;;3.97;;
62554;SDS011;48610;52.144;8.624;2024-01-27T06:23:27;14.88;;;4.28;;
62554;SDS011;48610;52.144;8.624;2024-01-27T06:26:28;13.23;;;4.00;;
62554;SDS011;48610;52.144;8.624;2024-01-27T06:29:28;14.52;;;4.13;;
62554;SDS011;48610;52.144;8.624;2024-01-27T06:32:29;12.38;;;4.20;;
62554;SDS011;48610;52.144;8.624;2024-01-27T06:35:29;11.93;;;4.15;;
62554;SDS011;48610;52.144;8.624;2024-01-27T06:38:30;16.08;;;4.50;;
62554;SDS011;48610;52.144;8.624;2024-01-27T06:41:31;10.48;;;4.35;;
62554;SDS011;48610;52.144;8.624;2024-01-27T06:44:32;10.07;;;4.50;;
62554;SDS011;48610;52.144;8.624;2024-01-27T06:47:32;16.05;;;5.07;;
62554;SDS011;48610;52.144;8.624;2024-01-27T06:50:33;6.80;;;3.83;;
62554;SDS011;48610;52.144;8.624;2024-01-27T06:53:34;10.80;;;4.70;;
62554;SDS011;48610;52.144;8.624;2024-01-27T06:56:34;16.20;;;4.88;;
62554;SDS011;48610;52.144;8.624;2024-01-27T06:59:35;16.10;;;4.55;;
62554;SDS011;48610;52.144;8.624;2024-01-27T07:02:35;7.05;;;4.40;;
62554;SDS011;48610;52.144;8.624;2024-01-27T07:05:36;19.55;;;4.93;;
62554;SDS011;48610;52.144;8.624;2024-01-27T07:08:40;9.98;;;4.82;;
62554;SDS011;48610;52.144;8.624;2024-01-27T07:11:40;13.90;;;5.45;;
62554;SDS011;48610;52.144;8.624;2024-01-27T07:14:41;13.18;;;5.57;;
62554;SDS011;48610;52.144;8.624;2024-01-27T07:17:41;13.10;;;5.40;;
62554;SDS011;48610;52.144;8.624;2024-01-27T07:20:42;12.00;;;4.95;;
62554;SDS011;48610;52.144;8.624;2024-01-27T07:23:43;12.98;;;5.38;;
62554;SDS011;48610;52.144;8.624;2024-01-27T07:26:44;15.38;;;4.95;;
62554;SDS011;48610;52.144;8.624;2024-01-27T07:29:44;10.60;;;4.95;;
62554;SDS011;48610;52.144;8.624;2024-01-27T07:32:45;17.02;;;5.97;;
62554;SDS011;48610;52.144;8.624;2024-01-27T07:35:45;17.05;;;5.68;;
62554;SDS011;48610;52.144;8.624;2024-01-27T07:38:46;17.40;;;5.65;;
62554;SDS011;48610;52.144;8.624;2024-01-27T07:41:47;15.93;;;5.85;;
62554;SDS011;48610;52.144;8.624;2024-01-27T07:44:48;12.35;;;5.32;;
62554;SDS011;48610;52.144;8.624;2024-01-27T07:47:49;12.57;;;5.80;;
62554;SDS011;48610;52.144;8.624;2024-01-27T07:50:50;14.10;;;5.68;;
62554;SDS011;48610;52.144;8.624;2024-01-27T07:53:50;17.67;;;5.38;;
62554;SDS011;48610;52.144;8.624;2024-01-27T07:56:51;18.17;;;5.97;;
62554;SDS011;48610;52.144;8.624;2024-01-27T07:59:52;11.18;;;6.10;;
62554;SDS011;48610;52.144;8.624;2024-01-27T08:02:52;17.20;;;5.50;;
62554;SDS011;48610;52.144;8.624;2024-01-27T08:05:53;20.08;;;6.15;;
62554;SDS011;48610;52.144;8.624;2024-01-27T08:08:56;12.32;;;6.03;;
62554;SDS011;48610;52.144;8.624;2024-01-27T08:11:56;13.70;;;5.68;;
62554;SDS011;48610;52.144;8.624;2024-01-27T08:14:57;14.35;;;5.57;;
62554;SDS011;48610;52.144;8.624;2024-01-27T08:17:58;7.15;;;3.45;;
62554;SDS011;48610;52.144;8.624;2024-01-27T08:20:58;15.52;;;6.28;;
62554;SDS011;48610;52.144;8.624;2024-01-27T08:23:59;18.98;;;5.93;;
62554;SDS011;48610;52.144;8.624;2024-01-27T08:27:00;21.63;;;6.25;;
62554;SDS011;48610;52.144;8.624;2024-01-27T08:30:01;15.30;;;6.03;;
62554;SDS011;48610;52.144;8.624;2024-01-27T08:33:01;11.50;;;5.13;;
62554;SDS011;48610;52.144;8.624;2024-01-27T08:36:02;16.85;;;5.35;;
62554;SDS011;48610;52.144;8.624;2024-01-27T08:39:03;22.55;;;5.88;;
62554;SDS011;48610;52.144;8.624;2024-01-27T08:42:07;18.73;;;5.40;;
62554;SDS011;48610;52.144;8.624;2024-01-27T08:45:07;17.00;;;5.10;;
62554;SDS011;48610;52.144;8.624;2024-01-27T08:48:08;19.38;;;6.32;;
62554;SDS011;48610;52.144;8.624;2024-01-27T08:51:09;10.35;;;4.47;;
62554;SDS011;48610;52.144;8.624;2024-01-27T08:54:11;19.80;;;6.82;;
62554;SDS011;48610;52.144;8.624;2024-01-27T08:57:12;13.85;;;5.97;;
62554;SDS011;48610;52.144;8.624;2024-01-27T09:00:13;22.40;;;6.60;;
62554;SDS011;48610;52.144;8.624;2024-01-27T09:03:15;21.83;;;5.97;;
62554;SDS011;48610;52.144;8.624;2024-01-27T09:06:16;13.25;;;5.90;;
62554;SDS011;48610;52.144;8.624;2024-01-27T09:09:18;13.23;;;5.93;;
62554;SDS011;48610;52.144;8.624;2024-01-27T09:12:19;23.60;;;6.25;;
62554;SDS011;48610;52.144;8.624;2024-01-27T09:15:21;12.40;;;4.80;;
62554;SDS011;48610;52.144;8.624;2024-01-27T09:18:22;21.85;;;7.93;;
62554;SDS011;48610;52.144;8.624;2024-01-27T09:21:22;14.60;;;6.07;;
62554;SDS011;48610;52.144;8.624;2024-01-27T09:24:28;15.00;;;5.90;;
62554;SDS011;48610;52.144;8.624;2024-01-27T09:27:33;21.73;;;6.53;;
62554;SDS011;48610;52.144;8.624;2024-01-27T09:30:34;16.30;;;5.87;;
62554;SDS011;48610;52.144;8.624;2024-01-27T09:33:35;15.40;;;6.50;;
62554;SDS011;48610;52.144;8.624;2024-01-27T09:36:36;16.20;;;5.13;;
62554;SDS011;48610;52.144;8.624;2024-01-27T09:39:36;18.60;;;5.75;;
62554;SDS011;48610;52.144;8.624;2024-01-27T09:42:37;17.08;;;5.75;;
62554;SDS011;48610;52.144;8.624;2024-01-27T09:45:42;19.10;;;6.63;;
62554;SDS011;48610;52.144;8.624;2024-01-27T09:48:43;15.98;;;6.43;;
62554;SDS011;48610;52.144;8.624;2024-01-27T09:51:43;16.33;;;5.82;;
62554;SDS011;48610;52.144;8.624;2024-01-27T09:54:44;15.38;;;6.40;;
62554;SDS011;48610;52.144;8.624;2024-01-27T09:57:45;21.20;;;6.32;;
62554;SDS011;48610;52.144;8.624;2024-01-27T10:00:46;16.30;;;6.07;;
62554;SDS011;48610;52.144;8.624;2024-01-27T10:03:47;14.68;;;7.18;;
62554;SDS011;48610;52.144;8.624;2024-01-27T10:06:48;16.02;;;6.40;;
62554;SDS011;48610;52.144;8.624;2024-01-27T10:09:50;16.38;;;6.70;;
62554;SDS011;48610;52.144;8.624;2024-01-27T10:12:52;10.18;;;3.47;;
62554;SDS011;48610;52.144;8.624;2024-01-27T10:19:01;23.42;;;6.40;;
62554;SDS011;48610;52.144;8.624;2024-01-27T10:22:02;14.65;;;6.25;;
62554;SDS011;48610;52.144;8.624;2024-01-27T10:25:03;12.30;;;5.93;;
62554;SDS011;48610;52.144;8.624;2024-01-27T10:28:05;20.67;;;6.07;;
62554;SDS011;48610;52.144;8.624;2024-01-27T10:31:10;15.48;;;5.40;;
62554;SDS011;48610;52.144;8.624;2024-01-27T10:34:11;9.35;;;5.10;;
62554;SDS011;48610;52.144;8.624;2024-01-27T10:37:15;16.02;;;6.30;;
62554;SDS011;48610;52.144;8.624;2024-01-27T10:40:15;16.45;;;5.70;;
62554;SDS011;48610;52.144;8.624;2024-01-27T10:43:16;10.68;;;4.50;;
62554;SDS011;48610;52.144;8.624;2024-01-27T10:46:19;16.92;;;5.45;;
62554;SDS011;48610;52.144;8.624;2024-01-27T10:49:21;14.93;;;5.68;;
62554;SDS011;48610;52.144;8.624;2024-01-27T10:52:24;10.85;;;4.75;;
62554;SDS011;48610;52.144;8.624;2024-01-27T10:55:28;10.90;;;4.63;;
62554;SDS011;48610;52.144;8.624;2024-01-27T10:58:29;15.57;;;5.15;;
62554;SDS011;48610;52.144;8.624;2024-01-27T11:01:31;20.27;;;5.60;;
62554;SDS011;48610;52.144;8.624;2024-01-27T11:04:34;16.70;;;5.63;;
62554;SDS011;48610;52.144;8.624;2024-01-27T11:07:36;19.60;;;5.72;;
62554;SDS011;48610;52.144;8.624;2024-01-27T11:10:39;21.58;;;6.15;;
62554;SDS011;48610;52.144;8.624;2024-01-27T11:13:40;16.40;;;5.55;;
62554;SDS011;48610;52.144;8.624;2024-01-27T11:16:41;17.30;;;5.38;;
62554;SDS011;48610;52.144;8.624;2024-01-27T11:19:47;23.33;;;5.75;;
62554;SDS011;48610;52.144;8.624;2024-01-27T11:22:48;15.50;;;5.55;;
62554;SDS011;48610;52.144;8.624;2024-01-27T11:25:49;17.60;;;5.80;;
62554;SDS011;48610;52.144;8.624;2024-01-27T11:28:50;15.95;;;4.60;;
62554;SDS011;48610;52.144;8.624;2024-01-27T11:31:50;13.48;;;4.78;;
62554;SDS011;48610;52.144;8.624;2024-01-27T11:34:51;12.88;;;4.47;;
62554;SDS011;48610;52.144;8.624;2024-01-27T11:37:53;13.32;;;4.80;;
62554;SDS011;48610;52.144;8.624;2024-01-27T11:40:54;13.90;;;4.68;;
62554;SDS011;48610;52.144;8.624;2024-01-27T11:43:56;11.07;;;3.67;;
62554;SDS011;48610;52.144;8.624;2024-01-27T11:46:57;14.68;;;4.75;;
62554;SDS011;48610;52.144;8.624;2024-01-27T11:49:59;19.42;;;4.75;;
62554;SDS011;48610;52.144;8.624;2024-01-27T11:52:59;16.63;;;3.70;;
62554;SDS011;48610;52.144;8.624;2024-01-27T11:56:00;10.85;;;4.40;;
62554;SDS011;48610;52.144;8.624;2024-01-27T11:59:01;11.73;;;4.72;;
62554;SDS011;48610;52.144;8.624;2024-01-27T12:02:02;13.65;;;4.50;;
62554;SDS011;48610;52.144;8.624;2024-01-27T12:05:04;15.50;;;4.55;;
62554;SDS011;48610;52.144;8.624;2024-01-27T12:08:07;13.13;;;4.75;;
62554;SDS011;48610;52.144;8.624;2024-01-27T12:11:08;17.48;;;4.55;;
62554;SDS011;48610;52.144;8.624;2024-01-27T12:14:08;9.88;;;3.90;;
62554;SDS011;48610;52.144;8.624;2024-01-27T12:17:09;7.13;;;2.92;;
62554;SDS011;48610;52.144;8.624;2024-01-27T12:20:16;11.80;;;5.90;;
62554;SDS011;48610;52.144;8.624;2024-01-27T12:23:17;13.23;;;4.78;;
62554;SDS011;48610;52.144;8.624;2024-01-27T12:26:17;15.10;;;4.55;;
62554;SDS011;48610;52.144;8.624;2024-01-27T12:29:20;9.45;;;4.15;;
62554;SDS011;48610;52.144;8.624;2024-01-27T12:32:21;19.60;;;4.10;;
62554;SDS011;48610;52.144;8.624;2024-01-27T12:35:21;17.42;;;4.28;;
62554;SDS011;48610;52.144;8.624;2024-01-27T12:38:24;15.18;;;4.63;;
62554;SDS011;48610;52.144;8.624;2024-01-27T12:41:24;12.82;;;4.63;;
62554;SDS011;48610;52.144;8.624;2024-01-27T12:44:26;10.57;;;3.80;;
62554;SDS011;48610;52.144;8.624;2024-01-27T12:47:26;13.50;;;4.25;;
62554;SDS011;48610;52.144;8.624;2024-01-27T12:50:27;14.68;;;4.15;;
62554;SDS011;48610;52.144;8.624;2024-01-27T12:53:28;14.40;;;4.25;;
62554;SDS011;48610;52.144;8.624;2024-01-27T12:56:28;12.13;;;3.13;;
62554;SDS011;48610;52.144;8.624;2024-01-27T12:59:29;11.98;;;4.07;;
62554;SDS011;48610;52.144;8.624;2024-01-27T13:02:31;14.95;;;3.95;;
62554;SDS011;48610;52.144;8.624;2024-01-27T13:05:31;12.95;;;4.18;;
62554;SDS011;48610;52.144;8.624;2024-01-27T13:08:34;11.82;;;3.60;;
62554;SDS011;48610;52.144;8.624;2024-01-27T13:11:34;20.17;;;4.25;;
62554;SDS011;48610;52.144;8.624;2024-01-27T13:14:35;10.23;;;4.07;;
62554;SDS011;48610;52.144;8.624;2024-01-27T13:17:35;10.40;;;2.75;;
62554;SDS011;48610;52.144;8.624;2024-01-27T13:20:36;10.82;;;3.50;;
62554;SDS011;48610;52.144;8.624;2024-01-27T13:23:37;11.50;;;3.33;;
62554;SDS011;48610;52.144;8.624;2024-01-27T13:26:38;12.90;;;4.05;;
62554;SDS011;48610;52.144;8.624;2024-01-27T13:29:38;10.80;;;3.95;;
62554;SDS011;48610;52.144;8.624;2024-01-27T13:32:39;10.27;;;3.15;;
62554;SDS011;48610;52.144;8.624;2024-01-27T13:35:39;5.68;;;2.65;;
62554;SDS011;48610;52.144;8.624;2024-01-27T13:38:40;9.18;;;3.58;;
62554;SDS011;48610;52.144;8.624;2024-01-27T13:41:40;11.65;;;3.80;;
62554;SDS011;48610;52.144;8.624;2024-01-27T13:44:41;9.02;;;3.20;;
62554;SDS011;48610;52.144;8.624;2024-01-27T13:47:42;10.73;;;3.67;;
62554;SDS011;48610;52.144;8.624;2024-01-27T13:50:42;6.60;;;2.80;;
62554;SDS011;48610;52.144;8.624;2024-01-27T13:53:43;7.05;;;3.25;;
62554;SDS011;48610;52.144;8.624;2024-01-27T13:56:44;9.88;;;3.45;;
62554;SDS011;48610;52.144;8.624;2024-01-27T13:59:45;3.10;;;1.98;;
62554;SDS011;48610;52.144;8.624;2024-01-27T14:02:46;6.55;;;3.05;;
62554;SDS011;48610;52.144;8.624;2024-01-27T14:05:46;10.25;;;3.42;;
62554;SDS011;48610;52.144;8.624;2024-01-27T14:08:47;11.85;;;3.92;;
62554;SDS011;48610;52.144;8.624;2024-01-27T14:11:48;13.52;;;3.38;;
62554;SDS011;48610;52.144;8.624;2024-01-27T14:14:49;20.83;;;4.15;;
62554;SDS011;48610;52.144;8.624;2024-01-27T14:17:50;10.77;;;3.80;;
62554;SDS011;48610;52.144;8.624;2024-01-27T14:20:51;20.48;;;3.63;;
62554;SDS011;48610;52.144;8.624;2024-01-27T14:23:51;15.32;;;3.83;;
62554;SDS011;48610;52.144;8.624;2024-01-27T14:26:57;18.38;;;4.40;;
62554;SDS011;48610;52.144;8.624;2024-01-27T14:29:58;9.02;;;3.40;;
62554;SDS011;48610;52.144;8.624;2024-01-27T14:32:58;18.63;;;3.90;;
62554;SDS011;48610;52.144;8.624;2024-01-27T14:35:59;12.43;;;3.90;;
62554;SDS011;48610;52.144;8.624;2024-01-27T14:38:59;14.77;;;3.10;;
62554;SDS011;48610;52.144;8.624;2024-01-27T14:42:02;15.77;;;4.20;;
62554;SDS011;48610;52.144;8.624;2024-01-27T14:45:04;14.90;;;3.80;;
62554;SDS011;48610;52.144;8.624;2024-01-27T14:48:05;12.20;;;3.75;;
62554;SDS011;48610;52.144;8.624;2024-01-27T14:51:06;7.90;;;3.00;;
62554;SDS011;48610;52.144;8.624;2024-01-27T14:54:07;9.95;;;3.90;;
62554;SDS011;48610;52.144;8.624;2024-01-27T14:57:07;13.27;;;3.63;;
62554;SDS011;48610;52.144;8.624;2024-01-27T15:00:09;7.38;;;3.25;;
62554;SDS011;48610;52.144;8.624;2024-01-27T15:03:10;14.70;;;3.53;;
62554;SDS011;48610;52.144;8.624;2024-01-27T15:06:12;15.27;;;3.95;;
62554;SDS011;48610;52.144;8.624;2024-01-27T15:09:12;15.93;;;4.18;;
62554;SDS011;48610;52.144;8.624;2024-01-27T15:12:15;14.73;;;4.03;;
62554;SDS011;48610;52.144;8.624;2024-01-27T15:15:16;10.35;;;3.85;;
62554;SDS011;48610;52.144;8.624;2024-01-27T15:18:17;9.65;;;3.47;;
62554;SDS011;48610;52.144;8.624;2024-01-27T15:21:18;13.68;;;3.95;;
62554;SDS011;48610;52.144;8.624;2024-01-27T15:24:18;14.60;;;3.70;;
62554;SDS011;48610;52.144;8.624;2024-01-27T15:27:19;13.98;;;3.83;;
62554;SDS011;48610;52.144;8.624;2024-01-27T15:30:19;10.95;;;4.07;;
62554;SDS011;48610;52.144;8.624;2024-01-27T15:33:20;18.05;;;4.63;;
62554;SDS011;48610;52.144;8.624;2024-01-27T15:36:21;10.02;;;3.92;;
62554;SDS011;48610;52.144;8.624;2024-01-27T15:39:21;13.60;;;4.00;;
62554;SDS011;48610;52.144;8.624;2024-01-27T15:42:22;9.02;;;3.85;;
62554;SDS011;48610;52.144;8.624;2024-01-27T15:45:22;19.05;;;3.92;;
62554;SDS011;48610;52.144;8.624;2024-01-27T15:48:23;13.23;;;4.00;;
62554;SDS011;48610;52.144;8.624;2024-01-27T15:51:26;18.02;;;4.25;;
62554;SDS011;48610;52.144;8.624;2024-01-27T15:54:26;16.27;;;3.83;;
62554;SDS011;48610;52.144;8.624;2024-01-27T15:57:27;19.05;;;4.78;;
62554;SDS011;48610;52.144;8.624;2024-01-27T16:00:28;7.75;;;3.35;;
62554;SDS011;48610;52.144;8.624;2024-01-27T16:03:29;13.40;;;4.07;;
62554;SDS011;48610;52.144;8.624;2024-01-27T16:06:30;15.90;;;4.15;;
62554;SDS011;48610;52.144;8.624;2024-01-27T16:09:31;11.38;;;4.40;;
62554;SDS011;48610;52.144;8.624;2024-01-27T16:12:31;11.20;;;3.85;;
62554;SDS011;48610;52.144;8.624;2024-01-27T16:15:32;10.25;;;4.15;;
62554;SDS011;48610;52.144;8.624;2024-01-27T16:18:33;16.55;;;4.20;;
62554;SDS011;48610;52.144;8.624;2024-01-27T16:21:34;23.23;;;4.25;;
62554;SDS011;48610;52.144;8.624;2024-01-27T16:24:34;10.27;;;3.90;;
62554;SDS011;48610;52.144;8.624;2024-01-27T16:27:35;12.52;;;4.00;;
62554;SDS011;48610;52.144;8.624;2024-01-27T16:30:36;13.52;;;3.70;;
62554;SDS011;48610;52.144;8.624;2024-01-27T16:33:37;8.23;;;3.90;;
62554;SDS011;48610;52.144;8.624;2024-01-27T16:36:37;11.75;;;4.22;;
62554;SDS011;48610;52.144;8.624;2024-01-27T16:39:38;17.20;;;4.93;;
62554;SDS011;48610;52.144;8.624;2024-01-27T16:42:39;18.63;;;5.55;;
62554;SDS011;48610;52.144;8.624;2024-01-27T16:45:39;24.75;;;5.35;;
62554;SDS011;48610;52.144;8.624;2024-01-27T16:48:40;14.50;;;3.97;;
62554;SDS011;48610;52.144;8.624;2024-01-27T16:51:40;14.18;;;4.60;;
62554;SDS011;48610;52.144;8.624;2024-01-27T16:54:41;15.13;;;5.15;;
62554;SDS011;48610;52.144;8.624;2024-01-27T16:57:41;19.05;;;5.20;;
62554;SDS011;48610;52.144;8.624;2024-01-27T17:00:42;10.95;;;5.00;;
62554;SDS011;48610;52.144;8.624;2024-01-27T17:03:43;11.55;;;5.03;;
62554;SDS011;48610;52.144;8.624;2024-01-27T17:06:44;13.65;;;4.65;;
62554;SDS011;48610;52.144;8.624;2024-01-27T17:09:44;15.40;;;4.97;;
62554;SDS011;48610;52.144;8.624;2024-01-27T17:12:45;18.80;;;6.75;;
62554;SDS011;48610;52.144;8.624;2024-01-27T17:15:45;21.23;;;7.80;;
62554;SDS011;48610;52.144;8.624;2024-01-27T17:18:46;17.65;;;6.90;;
62554;SDS011;48610;52.144;8.624;2024-01-27T17:21:47;19.85;;;7.22;;
62554;SDS011;48610;52.144;8.624;2024-01-27T17:24:47;16.90;;;6.18;;
62554;SDS011;48610;52.144;8.624;2024-01-27T17:27:48;17.73;;;8.07;;
62554;SDS011;48610;52.144;8.624;2024-01-27T17:30:48;18.13;;;7.97;;
62554;SDS011;48610;52.144;8.624;2024-01-27T17:33:49;23.67;;;7.72;;
62554;SDS011;48610;52.144;8.624;2024-01-27T17:36:50;20.05;;;6.85;;
62554;SDS011;48610;52.144;8.624;2024-01-27T17:39:50;14.45;;;6.28;;
62554;SDS011;48610;52.144;8.624;2024-01-27T17:42:51;15.35;;;7.00;;
62554;SDS011;48610;52.144;8.624;2024-01-27T17:45:52;12.63;;;5.75;;
62554;SDS011;48610;52.144;8.624;2024-01-27T17:48:52;19.98;;;6.50;;
62554;SDS011;48610;52.144;8.624;2024-01-27T17:51:53;10.77;;;5.38;;
62554;SDS011;48610;52.144;8.624;2024-01-27T17:54:54;16.30;;;5.50;;
62554;SDS011;48610;52.144;8.624;2024-01-27T17:57:55;15.45;;;6.13;;